sensor_id;sensor_type;location;lat;lon;timestamp;P1;durP1;ratioP1;P2;durP2;ratioP2
84510;SDS011;74730;43.858;18.424;2024-03-06T00:02:11;22.25;;;11.25;;
84510;SDS011;74730;43.858;18.424;2024-03-06T00:04:37;25.73;;;11.38;;
84510;SDS011;74730;43.858;18.424;2024-03-06T00:07:03;24.75;;;14.15;;
84510;SDS011;74730;43.858;18.424;2024-03-06T00:09:28;21.58;;;11.52;;
84510;SDS011;74730;43.858;18.424;2024-03-06T00:11:54;24.23;;;14.35;;
84510;SDS011;74730;43.858;18.424;2024-03-06T00:14:20;25.88;;;14.30;;
84510;SDS011;74730;43.858;18.424;2024-03-06T00:26:39;18.73;;;10.60;;
84510;SDS011;74730;43.858;18.424;2024-03-06T00:34:00;22.10;;;10.57;;
84510;SDS011;74730;43.858;18.424;2024-03-06T00:36:26;22.08;;;11.13;;
84510;SDS011;74730;43.858;18.424;2024-03-06T00:38:51;20.75;;;11.27;;
84510;SDS011;74730;43.858;18.424;2024-03-06T00:41:17;24.35;;;11.60;;
84510;SDS011;74730;43.858;18.424;2024-03-06T00:43:42;21.20;;;10.85;;
84510;SDS011;74730;43.858;18.424;2024-03-06T00:46:08;24.70;;;12.07;;
84510;SDS011;74730;43.858;18.424;2024-03-06T00:48:33;24.08;;;11.95;;
84510;SDS011;74730;43.858;18.424;2024-03-06T00:50:59;23.50;;;12.23;;
84510;SDS011;74730;43.858;18.424;2024-03-06T00:53:24;24.08;;;11.75;;
84510;SDS011;74730;43.858;18.424;2024-03-06T00:55:50;19.33;;;12.13;;
84510;SDS011;74730;43.858;18.424;2024-03-06T00:58:15;27.63;;;12.23;;
84510;SDS011;74730;43.858;18.424;2024-03-06T01:00:41;21.55;;;11.90;;
84510;SDS011;74730;43.858;18.424;2024-03-06T01:03:06;23.02;;;11.75;;
84510;SDS011;74730;43.858;18.424;2024-03-06T01:05:32;24.02;;;11.80;;
84510;SDS011;74730;43.858;18.424;2024-03-06T01:07:57;19.30;;;11.02;;
84510;SDS011;74730;43.858;18.424;2024-03-06T01:10:24;20.98;;;11.73;;
84510;SDS011;74730;43.858;18.424;2024-03-06T01:12:50;25.35;;;12.02;;
84510;SDS011;74730;43.858;18.424;2024-03-06T01:15:15;25.35;;;11.82;;
84510;SDS011;74730;43.858;18.424;2024-03-06T01:17:41;19.13;;;11.20;;
84510;SDS011;74730;43.858;18.424;2024-03-06T01:20:07;25.52;;;11.93;;
84510;SDS011;74730;43.858;18.424;2024-03-06T01:22:33;22.30;;;12.02;;
84510;SDS011;74730;43.858;18.424;2024-03-06T01:24:59;18.20;;;10.95;;
84510;SDS011;74730;43.858;18.424;2024-03-06T01:27:26;24.65;;;11.95;;
84510;SDS011;74730;43.858;18.424;2024-03-06T01:29:51;21.48;;;11.98;;
84510;SDS011;74730;43.858;18.424;2024-03-06T01:32:17;21.27;;;11.90;;
84510;SDS011;74730;43.858;18.424;2024-03-06T01:34:42;18.58;;;11.52;;
84510;SDS011;74730;43.858;18.424;2024-03-06T01:37:08;23.23;;;12.45;;
84510;SDS011;74730;43.858;18.424;2024-03-06T01:39:34;26.63;;;13.77;;
84510;SDS011;74730;43.858;18.424;2024-03-06T01:42:00;31.40;;;12.73;;
84510;SDS011;74730;43.858;18.424;2024-03-06T01:44:26;24.10;;;12.63;;
84510;SDS011;74730;43.858;18.424;2024-03-06T01:46:52;21.52;;;12.02;;
84510;SDS011;74730;43.858;18.424;2024-03-06T01:49:17;21.88;;;12.18;;
84510;SDS011;74730;43.858;18.424;2024-03-06T01:51:45;21.52;;;11.10;;
84510;SDS011;74730;43.858;18.424;2024-03-06T01:54:14;24.77;;;12.18;;
84510;SDS011;74730;43.858;18.424;2024-03-06T01:56:44;27.65;;;11.88;;
84510;SDS011;74730;43.858;18.424;2024-03-06T01:59:15;20.63;;;12.65;;
84510;SDS011;74730;43.858;18.424;2024-03-06T02:01:41;25.40;;;12.50;;
84510;SDS011;74730;43.858;18.424;2024-03-06T02:04:08;23.35;;;12.05;;
84510;SDS011;74730;43.858;18.424;2024-03-06T02:06:38;26.08;;;12.60;;
84510;SDS011;74730;43.858;18.424;2024-03-06T02:09:04;22.23;;;13.23;;
84510;SDS011;74730;43.858;18.424;2024-03-06T02:11:29;25.90;;;13.45;;
84510;SDS011;74730;43.858;18.424;2024-03-06T02:13:55;24.80;;;13.32;;
84510;SDS011;74730;43.858;18.424;2024-03-06T02:16:21;23.63;;;12.85;;
84510;SDS011;74730;43.858;18.424;2024-03-06T02:18:53;28.30;;;13.75;;
84510;SDS011;74730;43.858;18.424;2024-03-06T02:21:22;26.15;;;13.32;;
84510;SDS011;74730;43.858;18.424;2024-03-06T02:23:48;22.65;;;13.23;;
84510;SDS011;74730;43.858;18.424;2024-03-06T02:26:19;22.27;;;12.70;;
84510;SDS011;74730;43.858;18.424;2024-03-06T02:28:55;32.75;;;13.95;;
84510;SDS011;74730;43.858;18.424;2024-03-06T02:31:21;22.00;;;12.38;;
84510;SDS011;74730;43.858;18.424;2024-03-06T02:33:48;22.17;;;11.95;;
84510;SDS011;74730;43.858;18.424;2024-03-06T02:36:17;34.25;;;14.35;;
84510;SDS011;74730;43.858;18.424;2024-03-06T02:38:43;25.23;;;13.45;;
84510;SDS011;74730;43.858;18.424;2024-03-06T02:41:10;23.27;;;12.75;;
84510;SDS011;74730;43.858;18.424;2024-03-06T02:43:36;24.90;;;12.73;;
84510;SDS011;74730;43.858;18.424;2024-03-06T02:46:02;22.20;;;13.52;;
84510;SDS011;74730;43.858;18.424;2024-03-06T02:48:28;22.00;;;12.70;;
84510;SDS011;74730;43.858;18.424;2024-03-06T02:50:53;25.05;;;13.57;;
84510;SDS011;74730;43.858;18.424;2024-03-06T02:53:19;27.38;;;13.63;;
84510;SDS011;74730;43.858;18.424;2024-03-06T02:55:45;21.48;;;12.32;;
84510;SDS011;74730;43.858;18.424;2024-03-06T02:58:10;23.75;;;13.52;;
84510;SDS011;74730;43.858;18.424;2024-03-06T03:00:36;26.20;;;12.90;;
84510;SDS011;74730;43.858;18.424;2024-03-06T03:03:01;26.55;;;13.23;;
84510;SDS011;74730;43.858;18.424;2024-03-06T03:05:27;23.98;;;12.85;;
84510;SDS011;74730;43.858;18.424;2024-03-06T03:07:52;24.70;;;13.63;;
84510;SDS011;74730;43.858;18.424;2024-03-06T03:10:18;24.23;;;13.30;;
84510;SDS011;74730;43.858;18.424;2024-03-06T03:12:43;26.77;;;14.10;;
84510;SDS011;74730;43.858;18.424;2024-03-06T03:15:09;21.98;;;13.02;;
84510;SDS011;74730;43.858;18.424;2024-03-06T03:17:35;24.40;;;13.00;;
84510;SDS011;74730;43.858;18.424;2024-03-06T03:20:01;26.95;;;12.55;;
84510;SDS011;74730;43.858;18.424;2024-03-06T03:22:44;27.42;;;13.25;;
84510;SDS011;74730;43.858;18.424;2024-03-06T03:25:10;25.58;;;13.60;;
84510;SDS011;74730;43.858;18.424;2024-03-06T03:27:37;28.15;;;13.52;;
84510;SDS011;74730;43.858;18.424;2024-03-06T03:30:07;27.20;;;13.65;;
84510;SDS011;74730;43.858;18.424;2024-03-06T03:32:33;27.33;;;13.45;;
84510;SDS011;74730;43.858;18.424;2024-03-06T03:34:59;21.70;;;13.50;;
84510;SDS011;74730;43.858;18.424;2024-03-06T03:37:24;28.98;;;14.02;;
84510;SDS011;74730;43.858;18.424;2024-03-06T03:39:50;28.38;;;14.70;;
84510;SDS011;74730;43.858;18.424;2024-03-06T03:42:15;30.73;;;14.32;;
84510;SDS011;74730;43.858;18.424;2024-03-06T03:44:41;30.02;;;14.27;;
84510;SDS011;74730;43.858;18.424;2024-03-06T03:47:07;20.88;;;12.38;;
84510;SDS011;74730;43.858;18.424;2024-03-06T03:49:32;35.08;;;13.93;;
84510;SDS011;74730;43.858;18.424;2024-03-06T03:51:58;24.67;;;14.35;;
84510;SDS011;74730;43.858;18.424;2024-03-06T03:54:23;26.85;;;12.48;;
84510;SDS011;74730;43.858;18.424;2024-03-06T03:56:49;23.20;;;12.85;;
84510;SDS011;74730;43.858;18.424;2024-03-06T03:59:15;26.08;;;13.02;;
84510;SDS011;74730;43.858;18.424;2024-03-06T04:01:41;25.95;;;12.80;;
84510;SDS011;74730;43.858;18.424;2024-03-06T04:04:06;23.48;;;13.60;;
84510;SDS011;74730;43.858;18.424;2024-03-06T04:06:33;25.42;;;12.38;;
84510;SDS011;74730;43.858;18.424;2024-03-06T04:09:24;27.27;;;14.07;;
84510;SDS011;74730;43.858;18.424;2024-03-06T04:11:50;27.83;;;13.02;;
84510;SDS011;74730;43.858;18.424;2024-03-06T04:14:15;23.65;;;13.27;;
84510;SDS011;74730;43.858;18.424;2024-03-06T04:16:41;20.42;;;12.13;;
84510;SDS011;74730;43.858;18.424;2024-03-06T04:19:06;24.92;;;13.23;;
84510;SDS011;74730;43.858;18.424;2024-03-06T04:21:32;25.00;;;13.40;;
84510;SDS011;74730;43.858;18.424;2024-03-06T04:23:57;25.55;;;14.25;;
84510;SDS011;74730;43.858;18.424;2024-03-06T04:26:23;23.23;;;13.60;;
84510;SDS011;74730;43.858;18.424;2024-03-06T04:28:49;23.98;;;12.77;;
84510;SDS011;74730;43.858;18.424;2024-03-06T04:31:14;23.23;;;13.85;;
84510;SDS011;74730;43.858;18.424;2024-03-06T04:33:40;25.10;;;13.00;;
84510;SDS011;74730;43.858;18.424;2024-03-06T04:36:07;29.20;;;13.15;;
84510;SDS011;74730;43.858;18.424;2024-03-06T04:38:33;31.67;;;13.07;;
84510;SDS011;74730;43.858;18.424;2024-03-06T04:40:59;26.40;;;12.93;;
84510;SDS011;74730;43.858;18.424;2024-03-06T04:43:25;31.30;;;12.88;;
84510;SDS011;74730;43.858;18.424;2024-03-06T04:45:50;26.27;;;13.32;;
84510;SDS011;74730;43.858;18.424;2024-03-06T04:48:16;24.25;;;13.63;;
84510;SDS011;74730;43.858;18.424;2024-03-06T04:50:42;27.30;;;14.77;;
84510;SDS011;74730;43.858;18.424;2024-03-06T04:53:07;27.83;;;14.52;;
84510;SDS011;74730;43.858;18.424;2024-03-06T04:55:33;25.92;;;13.43;;
84510;SDS011;74730;43.858;18.424;2024-03-06T04:58:02;25.08;;;13.80;;
84510;SDS011;74730;43.858;18.424;2024-03-06T05:00:28;27.65;;;13.85;;
84510;SDS011;74730;43.858;18.424;2024-03-06T05:02:54;29.40;;;12.98;;
84510;SDS011;74730;43.858;18.424;2024-03-06T05:05:21;25.40;;;13.23;;
84510;SDS011;74730;43.858;18.424;2024-03-06T05:07:47;23.20;;;12.75;;
84510;SDS011;74730;43.858;18.424;2024-03-06T05:10:13;26.60;;;13.48;;
84510;SDS011;74730;43.858;18.424;2024-03-06T05:12:40;29.63;;;13.10;;
84510;SDS011;74730;43.858;18.424;2024-03-06T05:15:06;24.40;;;13.65;;
84510;SDS011;74730;43.858;18.424;2024-03-06T05:17:33;28.63;;;13.55;;
84510;SDS011;74730;43.858;18.424;2024-03-06T05:19:59;25.38;;;14.43;;
84510;SDS011;74730;43.858;18.424;2024-03-06T05:22:24;24.85;;;13.15;;
84510;SDS011;74730;43.858;18.424;2024-03-06T05:24:51;25.63;;;14.30;;
84510;SDS011;74730;43.858;18.424;2024-03-06T05:27:18;24.38;;;14.10;;
84510;SDS011;74730;43.858;18.424;2024-03-06T05:29:43;28.35;;;13.77;;
84510;SDS011;74730;43.858;18.424;2024-03-06T05:32:09;33.33;;;14.30;;
84510;SDS011;74730;43.858;18.424;2024-03-06T05:34:35;25.52;;;13.65;;
84510;SDS011;74730;43.858;18.424;2024-03-06T05:37:01;23.10;;;13.25;;
84510;SDS011;74730;43.858;18.424;2024-03-06T05:39:29;22.25;;;13.13;;
84510;SDS011;74730;43.858;18.424;2024-03-06T05:41:55;29.50;;;13.07;;
84510;SDS011;74730;43.858;18.424;2024-03-06T05:44:21;24.65;;;13.30;;
84510;SDS011;74730;43.858;18.424;2024-03-06T05:46:46;23.05;;;14.13;;
84510;SDS011;74730;43.858;18.424;2024-03-06T05:49:13;31.67;;;12.55;;
84510;SDS011;74730;43.858;18.424;2024-03-06T05:51:39;20.38;;;12.32;;
84510;SDS011;74730;43.858;18.424;2024-03-06T05:54:04;22.25;;;12.57;;
84510;SDS011;74730;43.858;18.424;2024-03-06T05:56:33;26.70;;;12.68;;
84510;SDS011;74730;43.858;18.424;2024-03-06T05:58:59;21.50;;;12.70;;
84510;SDS011;74730;43.858;18.424;2024-03-06T06:01:30;37.30;;;14.50;;
84510;SDS011;74730;43.858;18.424;2024-03-06T06:03:56;25.70;;;14.88;;
84510;SDS011;74730;43.858;18.424;2024-03-06T06:06:21;24.65;;;15.00;;
84510;SDS011;74730;43.858;18.424;2024-03-06T06:08:47;30.70;;;14.88;;
84510;SDS011;74730;43.858;18.424;2024-03-06T06:11:13;26.77;;;14.93;;
84510;SDS011;74730;43.858;18.424;2024-03-06T06:13:38;31.85;;;15.77;;
84510;SDS011;74730;43.858;18.424;2024-03-06T06:16:07;27.10;;;16.17;;
84510;SDS011;74730;43.858;18.424;2024-03-06T06:18:32;26.33;;;15.30;;
84510;SDS011;74730;43.858;18.424;2024-03-06T06:20:58;25.52;;;15.77;;
84510;SDS011;74730;43.858;18.424;2024-03-06T06:23:24;29.88;;;16.17;;
84510;SDS011;74730;43.858;18.424;2024-03-06T06:25:50;35.72;;;17.58;;
84510;SDS011;74730;43.858;18.424;2024-03-06T06:28:16;31.70;;;18.08;;
84510;SDS011;74730;43.858;18.424;2024-03-06T06:30:42;29.13;;;15.07;;
84510;SDS011;74730;43.858;18.424;2024-03-06T06:33:07;27.55;;;15.10;;
84510;SDS011;74730;43.858;18.424;2024-03-06T06:35:33;22.48;;;12.88;;
84510;SDS011;74730;43.858;18.424;2024-03-06T06:38:02;23.25;;;13.23;;
84510;SDS011;74730;43.858;18.424;2024-03-06T06:40:30;27.63;;;14.93;;
84510;SDS011;74730;43.858;18.424;2024-03-06T06:42:55;31.45;;;15.75;;
84510;SDS011;74730;43.858;18.424;2024-03-06T06:45:21;26.80;;;14.23;;
84510;SDS011;74730;43.858;18.424;2024-03-06T06:47:47;30.55;;;15.40;;
84510;SDS011;74730;43.858;18.424;2024-03-06T06:50:14;28.27;;;15.63;;
84510;SDS011;74730;43.858;18.424;2024-03-06T06:52:41;28.85;;;15.23;;
84510;SDS011;74730;43.858;18.424;2024-03-06T06:55:07;28.70;;;15.23;;
84510;SDS011;74730;43.858;18.424;2024-03-06T06:57:37;23.50;;;15.40;;
84510;SDS011;74730;43.858;18.424;2024-03-06T07:00:03;26.60;;;15.43;;
84510;SDS011;74730;43.858;18.424;2024-03-06T07:02:39;27.48;;;14.88;;
84510;SDS011;74730;43.858;18.424;2024-03-06T07:05:07;29.00;;;14.73;;
84510;SDS011;74730;43.858;18.424;2024-03-06T07:07:34;31.73;;;16.08;;
84510;SDS011;74730;43.858;18.424;2024-03-06T07:10:01;26.63;;;15.27;;
84510;SDS011;74730;43.858;18.424;2024-03-06T07:12:27;28.50;;;15.18;;
84510;SDS011;74730;43.858;18.424;2024-03-06T07:14:53;49.78;;;18.25;;
84510;SDS011;74730;43.858;18.424;2024-03-06T07:17:18;28.45;;;15.77;;
84510;SDS011;74730;43.858;18.424;2024-03-06T07:19:44;30.35;;;15.65;;
84510;SDS011;74730;43.858;18.424;2024-03-06T07:22:10;27.95;;;15.82;;
84510;SDS011;74730;43.858;18.424;2024-03-06T07:24:36;25.42;;;15.07;;
84510;SDS011;74730;43.858;18.424;2024-03-06T07:27:02;32.17;;;15.68;;
84510;SDS011;74730;43.858;18.424;2024-03-06T07:29:28;30.98;;;18.60;;
84510;SDS011;74730;43.858;18.424;2024-03-06T07:31:54;28.85;;;16.05;;
84510;SDS011;74730;43.858;18.424;2024-03-06T07:34:20;27.33;;;16.05;;
84510;SDS011;74730;43.858;18.424;2024-03-06T07:36:48;30.23;;;16.67;;
84510;SDS011;74730;43.858;18.424;2024-03-06T07:39:18;30.30;;;17.30;;
84510;SDS011;74730;43.858;18.424;2024-03-06T07:41:44;30.73;;;15.85;;
84510;SDS011;74730;43.858;18.424;2024-03-06T07:44:10;30.20;;;16.70;;
84510;SDS011;74730;43.858;18.424;2024-03-06T07:46:35;28.83;;;15.75;;
84510;SDS011;74730;43.858;18.424;2024-03-06T07:49:01;28.98;;;16.55;;
84510;SDS011;74730;43.858;18.424;2024-03-06T07:51:28;25.65;;;16.55;;
84510;SDS011;74730;43.858;18.424;2024-03-06T07:53:55;28.50;;;16.17;;
84510;SDS011;74730;43.858;18.424;2024-03-06T07:56:22;25.15;;;15.95;;
84510;SDS011;74730;43.858;18.424;2024-03-06T07:58:48;28.83;;;15.77;;
84510;SDS011;74730;43.858;18.424;2024-03-06T08:01:15;29.00;;;15.52;;
84510;SDS011;74730;43.858;18.424;2024-03-06T08:03:40;24.30;;;17.10;;
84510;SDS011;74730;43.858;18.424;2024-03-06T08:06:08;38.85;;;23.73;;
84510;SDS011;74730;43.858;18.424;2024-03-06T08:08:34;26.95;;;17.48;;
84510;SDS011;74730;43.858;18.424;2024-03-06T08:11:01;24.85;;;16.40;;
84510;SDS011;74730;43.858;18.424;2024-03-06T08:13:26;29.92;;;19.08;;
84510;SDS011;74730;43.858;18.424;2024-03-06T08:15:53;34.17;;;19.40;;
84510;SDS011;74730;43.858;18.424;2024-03-06T08:18:18;30.88;;;19.00;;
84510;SDS011;74730;43.858;18.424;2024-03-06T08:20:44;29.10;;;17.38;;
84510;SDS011;74730;43.858;18.424;2024-03-06T08:23:10;33.90;;;16.80;;
84510;SDS011;74730;43.858;18.424;2024-03-06T08:25:35;30.73;;;16.98;;
84510;SDS011;74730;43.858;18.424;2024-03-06T08:28:01;23.65;;;14.93;;
84510;SDS011;74730;43.858;18.424;2024-03-06T08:30:28;27.35;;;16.27;;
84510;SDS011;74730;43.858;18.424;2024-03-06T08:32:57;32.45;;;20.33;;
84510;SDS011;74730;43.858;18.424;2024-03-06T08:35:23;26.40;;;16.95;;
84510;SDS011;74730;43.858;18.424;2024-03-06T08:37:49;25.20;;;14.75;;
84510;SDS011;74730;43.858;18.424;2024-03-06T08:40:16;29.55;;;15.43;;
84510;SDS011;74730;43.858;18.424;2024-03-06T08:42:43;25.00;;;15.68;;
84510;SDS011;74730;43.858;18.424;2024-03-06T08:45:09;28.02;;;16.50;;
84510;SDS011;74730;43.858;18.424;2024-03-06T08:47:35;27.40;;;16.20;;
84510;SDS011;74730;43.858;18.424;2024-03-06T08:50:01;24.90;;;16.75;;
84510;SDS011;74730;43.858;18.424;2024-03-06T08:52:28;29.55;;;18.70;;
84510;SDS011;74730;43.858;18.424;2024-03-06T08:54:54;29.23;;;18.70;;
84510;SDS011;74730;43.858;18.424;2024-03-06T08:57:19;30.10;;;17.75;;
84510;SDS011;74730;43.858;18.424;2024-03-06T08:59:47;34.33;;;18.75;;
84510;SDS011;74730;43.858;18.424;2024-03-06T09:02:14;26.42;;;17.67;;
84510;SDS011;74730;43.858;18.424;2024-03-06T09:04:43;24.20;;;17.88;;
84510;SDS011;74730;43.858;18.424;2024-03-06T09:07:09;30.33;;;17.60;;
84510;SDS011;74730;43.858;18.424;2024-03-06T09:09:35;30.90;;;17.75;;
84510;SDS011;74730;43.858;18.424;2024-03-06T09:12:05;30.65;;;18.13;;
84510;SDS011;74730;43.858;18.424;2024-03-06T09:14:35;28.00;;;15.55;;
84510;SDS011;74730;43.858;18.424;2024-03-06T09:17:01;29.42;;;15.23;;
84510;SDS011;74730;43.858;18.424;2024-03-06T09:19:28;22.80;;;15.30;;
84510;SDS011;74730;43.858;18.424;2024-03-06T09:21:54;26.27;;;16.77;;
84510;SDS011;74730;43.858;18.424;2024-03-06T09:24:22;28.60;;;15.48;;
84510;SDS011;74730;43.858;18.424;2024-03-06T09:26:50;27.60;;;16.85;;
84510;SDS011;74730;43.858;18.424;2024-03-06T09:29:16;35.45;;;17.42;;
84510;SDS011;74730;43.858;18.424;2024-03-06T09:31:43;29.98;;;16.65;;
84510;SDS011;74730;43.858;18.424;2024-03-06T09:34:09;27.48;;;16.00;;
84510;SDS011;74730;43.858;18.424;2024-03-06T09:36:40;32.80;;;16.90;;
84510;SDS011;74730;43.858;18.424;2024-03-06T09:39:13;35.33;;;19.05;;
84510;SDS011;74730;43.858;18.424;2024-03-06T09:41:45;28.90;;;18.98;;
84510;SDS011;74730;43.858;18.424;2024-03-06T09:44:11;29.48;;;17.13;;
84510;SDS011;74730;43.858;18.424;2024-03-06T09:46:40;28.95;;;17.38;;
84510;SDS011;74730;43.858;18.424;2024-03-06T09:49:10;32.35;;;17.27;;
84510;SDS011;74730;43.858;18.424;2024-03-06T09:51:37;24.55;;;15.63;;
84510;SDS011;74730;43.858;18.424;2024-03-06T09:54:06;23.88;;;14.02;;
84510;SDS011;74730;43.858;18.424;2024-03-06T09:56:33;25.02;;;13.35;;
84510;SDS011;74730;43.858;18.424;2024-03-06T09:58:59;25.33;;;14.00;;
84510;SDS011;74730;43.858;18.424;2024-03-06T10:01:25;24.98;;;15.93;;
84510;SDS011;74730;43.858;18.424;2024-03-06T10:03:53;26.88;;;16.92;;
84510;SDS011;74730;43.858;18.424;2024-03-06T10:06:18;26.15;;;15.80;;
84510;SDS011;74730;43.858;18.424;2024-03-06T10:08:45;27.15;;;16.40;;
84510;SDS011;74730;43.858;18.424;2024-03-06T10:11:11;29.95;;;17.08;;
84510;SDS011;74730;43.858;18.424;2024-03-06T10:13:37;25.42;;;15.85;;
84510;SDS011;74730;43.858;18.424;2024-03-06T10:16:03;28.27;;;16.33;;
84510;SDS011;74730;43.858;18.424;2024-03-06T10:18:33;26.25;;;16.23;;
84510;SDS011;74730;43.858;18.424;2024-03-06T10:20:59;31.50;;;16.17;;
84510;SDS011;74730;43.858;18.424;2024-03-06T10:23:26;24.80;;;16.65;;
84510;SDS011;74730;43.858;18.424;2024-03-06T10:25:54;27.40;;;16.92;;
84510;SDS011;74730;43.858;18.424;2024-03-06T10:28:21;31.00;;;15.50;;
84510;SDS011;74730;43.858;18.424;2024-03-06T10:30:48;25.42;;;16.85;;
84510;SDS011;74730;43.858;18.424;2024-03-06T10:33:15;26.98;;;15.93;;
84510;SDS011;74730;43.858;18.424;2024-03-06T10:35:45;25.30;;;13.85;;
84510;SDS011;74730;43.858;18.424;2024-03-06T10:38:13;25.90;;;15.25;;
84510;SDS011;74730;43.858;18.424;2024-03-06T10:40:42;26.05;;;14.18;;
84510;SDS011;74730;43.858;18.424;2024-03-06T10:43:09;21.65;;;14.38;;
84510;SDS011;74730;43.858;18.424;2024-03-06T10:45:49;23.17;;;14.45;;
84510;SDS011;74730;43.858;18.424;2024-03-06T10:48:16;25.35;;;15.00;;
84510;SDS011;74730;43.858;18.424;2024-03-06T10:50:43;26.33;;;14.05;;
84510;SDS011;74730;43.858;18.424;2024-03-06T10:53:11;32.53;;;15.95;;
84510;SDS011;74730;43.858;18.424;2024-03-06T10:55:42;22.77;;;13.52;;
84510;SDS011;74730;43.858;18.424;2024-03-06T10:58:12;17.85;;;11.23;;
84510;SDS011;74730;43.858;18.424;2024-03-06T11:00:39;16.17;;;9.00;;
84510;SDS011;74730;43.858;18.424;2024-03-06T11:03:06;23.52;;;10.82;;
84510;SDS011;74730;43.858;18.424;2024-03-06T11:05:36;11.48;;;8.13;;
84510;SDS011;74730;43.858;18.424;2024-03-06T11:08:09;16.20;;;7.85;;
84510;SDS011;74730;43.858;18.424;2024-03-06T11:10:38;17.20;;;9.45;;
84510;SDS011;74730;43.858;18.424;2024-03-06T11:15:52;18.10;;;10.00;;
84510;SDS011;74730;43.858;18.424;2024-03-06T11:23:28;16.80;;;8.70;;
84510;SDS011;74730;43.858;18.424;2024-03-06T11:28:21;16.20;;;8.73;;
84510;SDS011;74730;43.858;18.424;2024-03-06T11:31:10;22.42;;;9.70;;
84510;SDS011;74730;43.858;18.424;2024-03-06T11:33:42;20.50;;;8.77;;
84510;SDS011;74730;43.858;18.424;2024-03-06T11:36:27;19.27;;;8.77;;
84510;SDS011;74730;43.858;18.424;2024-03-06T11:39:00;15.88;;;8.43;;
84510;SDS011;74730;43.858;18.424;2024-03-06T11:41:32;17.98;;;9.20;;
84510;SDS011;74730;43.858;18.424;2024-03-06T11:44:19;15.75;;;8.77;;
84510;SDS011;74730;43.858;18.424;2024-03-06T11:46:49;20.83;;;8.77;;
84510;SDS011;74730;43.858;18.424;2024-03-06T11:49:23;19.67;;;10.63;;
84510;SDS011;74730;43.858;18.424;2024-03-06T11:51:53;16.52;;;9.13;;
84510;SDS011;74730;43.858;18.424;2024-03-06T11:54:22;14.55;;;8.13;;
84510;SDS011;74730;43.858;18.424;2024-03-06T11:56:55;15.63;;;8.23;;
84510;SDS011;74730;43.858;18.424;2024-03-06T11:59:22;17.88;;;8.45;;
84510;SDS011;74730;43.858;18.424;2024-03-06T12:01:56;18.02;;;8.73;;
84510;SDS011;74730;43.858;18.424;2024-03-06T12:04:22;14.60;;;8.13;;
84510;SDS011;74730;43.858;18.424;2024-03-06T12:06:49;16.90;;;8.90;;
84510;SDS011;74730;43.858;18.424;2024-03-06T12:09:15;17.13;;;9.25;;
84510;SDS011;74730;43.858;18.424;2024-03-06T12:11:41;17.02;;;7.15;;
84510;SDS011;74730;43.858;18.424;2024-03-06T12:14:13;17.50;;;7.85;;
84510;SDS011;74730;43.858;18.424;2024-03-06T12:16:40;20.80;;;9.20;;
84510;SDS011;74730;43.858;18.424;2024-03-06T12:19:05;18.63;;;9.30;;
84510;SDS011;74730;43.858;18.424;2024-03-06T12:21:31;21.98;;;9.63;;
84510;SDS011;74730;43.858;18.424;2024-03-06T12:24:06;16.30;;;8.90;;
84510;SDS011;74730;43.858;18.424;2024-03-06T12:26:36;19.08;;;9.68;;
84510;SDS011;74730;43.858;18.424;2024-03-06T12:29:05;21.73;;;9.52;;
84510;SDS011;74730;43.858;18.424;2024-03-06T12:31:33;18.08;;;9.60;;
84510;SDS011;74730;43.858;18.424;2024-03-06T12:34:00;17.65;;;8.93;;
84510;SDS011;74730;43.858;18.424;2024-03-06T12:36:28;14.13;;;7.78;;
84510;SDS011;74730;43.858;18.424;2024-03-06T12:38:55;19.05;;;8.25;;
84510;SDS011;74730;43.858;18.424;2024-03-06T12:41:22;16.42;;;7.93;;
84510;SDS011;74730;43.858;18.424;2024-03-06T12:43:47;20.10;;;9.73;;
84510;SDS011;74730;43.858;18.424;2024-03-06T12:46:13;19.77;;;9.82;;
84510;SDS011;74730;43.858;18.424;2024-03-06T12:48:38;21.77;;;9.70;;
84510;SDS011;74730;43.858;18.424;2024-03-06T12:51:04;19.33;;;9.70;;
84510;SDS011;74730;43.858;18.424;2024-03-06T12:53:30;18.17;;;9.38;;
84510;SDS011;74730;43.858;18.424;2024-03-06T12:55:56;21.08;;;11.45;;
84510;SDS011;74730;43.858;18.424;2024-03-06T12:58:21;19.20;;;10.20;;
84510;SDS011;74730;43.858;18.424;2024-03-06T13:00:47;22.80;;;9.63;;
84510;SDS011;74730;43.858;18.424;2024-03-06T13:03:13;22.83;;;9.68;;
84510;SDS011;74730;43.858;18.424;2024-03-06T13:05:38;22.17;;;10.18;;
84510;SDS011;74730;43.858;18.424;2024-03-06T13:08:04;17.45;;;8.98;;
84510;SDS011;74730;43.858;18.424;2024-03-06T13:10:30;19.98;;;9.88;;
84510;SDS011;74730;43.858;18.424;2024-03-06T13:12:55;14.38;;;8.60;;
84510;SDS011;74730;43.858;18.424;2024-03-06T13:15:21;20.83;;;11.43;;
84510;SDS011;74730;43.858;18.424;2024-03-06T13:17:47;20.10;;;10.77;;
84510;SDS011;74730;43.858;18.424;2024-03-06T13:20:12;18.70;;;10.85;;
84510;SDS011;74730;43.858;18.424;2024-03-06T13:22:39;15.85;;;9.10;;
84510;SDS011;74730;43.858;18.424;2024-03-06T13:25:05;17.80;;;8.93;;
84510;SDS011;74730;43.858;18.424;2024-03-06T13:27:31;16.27;;;7.88;;
84510;SDS011;74730;43.858;18.424;2024-03-06T13:29:57;13.57;;;8.55;;
84510;SDS011;74730;43.858;18.424;2024-03-06T13:32:23;19.98;;;8.43;;
84510;SDS011;74730;43.858;18.424;2024-03-06T13:34:49;20.52;;;8.57;;
84510;SDS011;74730;43.858;18.424;2024-03-06T13:37:15;18.80;;;10.10;;
84510;SDS011;74730;43.858;18.424;2024-03-06T13:39:41;26.77;;;11.35;;
84510;SDS011;74730;43.858;18.424;2024-03-06T13:42:07;26.27;;;10.43;;
84510;SDS011;74730;43.858;18.424;2024-03-06T13:44:36;24.17;;;10.75;;
84510;SDS011;74730;43.858;18.424;2024-03-06T13:47:02;23.35;;;7.55;;
84510;SDS011;74730;43.858;18.424;2024-03-06T13:49:35;18.30;;;6.18;;
84510;SDS011;74730;43.858;18.424;2024-03-06T13:52:01;16.35;;;7.35;;
84510;SDS011;74730;43.858;18.424;2024-03-06T13:54:27;21.65;;;8.13;;
84510;SDS011;74730;43.858;18.424;2024-03-06T13:56:53;21.83;;;7.68;;
84510;SDS011;74730;43.858;18.424;2024-03-06T13:59:26;18.15;;;7.25;;
84510;SDS011;74730;43.858;18.424;2024-03-06T14:01:52;15.93;;;7.18;;
84510;SDS011;74730;43.858;18.424;2024-03-06T14:04:18;12.57;;;6.57;;
84510;SDS011;74730;43.858;18.424;2024-03-06T14:06:44;13.57;;;5.97;;
84510;SDS011;74730;43.858;18.424;2024-03-06T14:09:09;12.95;;;5.95;;
84510;SDS011;74730;43.858;18.424;2024-03-06T14:11:35;17.92;;;5.78;;
84510;SDS011;74730;43.858;18.424;2024-03-06T14:14:01;15.10;;;5.72;;
84510;SDS011;74730;43.858;18.424;2024-03-06T14:16:26;6.68;;;3.63;;
84510;SDS011;74730;43.858;18.424;2024-03-06T14:18:52;10.35;;;5.47;;
84510;SDS011;74730;43.858;18.424;2024-03-06T14:21:18;8.23;;;3.22;;
84510;SDS011;74730;43.858;18.424;2024-03-06T14:23:44;21.90;;;4.72;;
84510;SDS011;74730;43.858;18.424;2024-03-06T14:26:09;6.80;;;3.53;;
84510;SDS011;74730;43.858;18.424;2024-03-06T14:28:35;11.40;;;4.90;;
84510;SDS011;74730;43.858;18.424;2024-03-06T14:31:00;9.20;;;3.92;;
84510;SDS011;74730;43.858;18.424;2024-03-06T14:33:26;6.40;;;3.67;;
84510;SDS011;74730;43.858;18.424;2024-03-06T14:35:52;8.18;;;4.47;;